createdAt,value
2023-03-17T00:01:16.481Z,101610.78
2023-03-17T00:03:45.547Z,101611.34
2023-03-17T00:06:16.872Z,101615.69
2023-03-17T00:08:43.873Z,101616.81
2023-03-17T00:11:15.174Z,101608.78
2023-03-17T00:13:42.316Z,101614.19
2023-03-17T00:16:17.731Z,101609.09
2023-03-17T00:18:44.749Z,101601.44
2023-03-17T00:21:16.294Z,101601.63
2023-03-17T00:23:45.929Z,101605.47
2023-03-17T00:26:12.401Z,101606.53
2023-03-17T00:28:39.438Z,101602.16
2023-03-17T00:31:17.849Z,101602.56
2023-03-17T00:33:45.438Z,101595.63
2023-03-17T00:36:32.957Z,101597.22
2023-03-17T00:38:59.766Z,101599.66
2023-03-17T00:41:27.294Z,101603.69
2023-03-17T00:43:54.021Z,101607.69
2023-03-17T00:46:29.048Z,101607.69
2023-03-17T00:48:55.559Z,101605.53
2023-03-17T00:51:23.310Z,101608.06
2023-03-17T00:53:50.219Z,101599.66
2023-03-17T00:56:19.907Z,101597.47
2023-03-17T00:58:47.639Z,101596.38
2023-03-17T01:01:14.852Z,101598.38
2023-03-17T01:03:41.564Z,101597.75
2023-03-17T01:06:11.512Z,101587.00
2023-03-17T01:08:40.598Z,101588.66
2023-03-17T01:11:07.383Z,101591.91
2023-03-17T01:13:34.230Z,101591.19
2023-03-17T01:16:01.149Z,101585.53
2023-03-17T01:18:27.743Z,101581.00
2023-03-17T01:20:54.605Z,101582.63
2023-03-17T01:23:22.066Z,101572.56
2023-03-17T01:25:49.117Z,101570.22
2023-03-17T01:28:18.005Z,101569.31
2023-03-17T01:30:45.199Z,101572.00
2023-03-17T01:33:12.998Z,101563.81
2023-03-17T01:35:41.305Z,101567.47
2023-03-17T01:38:08.556Z,101564.91
2023-03-17T01:40:42.461Z,101562.75
2023-03-17T01:43:08.821Z,101563.81
2023-03-17T01:46:12.945Z,101565.84
2023-03-17T01:48:46.552Z,101563.31
2023-03-17T01:51:18.397Z,101563.09
2023-03-17T01:53:48.120Z,101561.09
2023-03-17T01:56:16.913Z,101562.53
2023-03-17T01:58:44.166Z,101572.78
2023-03-17T02:01:11.571Z,101566.22
2023-03-17T02:03:38.927Z,101561.25
2023-03-17T02:06:07.207Z,101559.44
2023-03-17T02:08:33.603Z,101558.91
2023-03-17T02:11:02.098Z,101560.25
2023-03-17T02:13:28.716Z,101562.56
2023-03-17T02:15:55.613Z,101575.66
2023-03-17T02:18:23.718Z,101566.00
2023-03-17T02:20:50.085Z,101565.09
2023-03-17T02:23:23.822Z,101568.91
2023-03-17T02:25:52.471Z,101573.66
2023-03-17T02:28:25.935Z,101574.75
2023-03-17T02:30:52.751Z,101571.63
2023-03-17T02:33:19.199Z,101574.00
2023-03-17T02:35:46.181Z,101572.56
2023-03-17T02:38:12.669Z,101568.00
2023-03-17T02:40:39.137Z,101567.44
2023-03-17T02:43:05.737Z,101575.66
2023-03-17T02:45:32.206Z,101570.34
2023-03-17T02:47:59.321Z,101570.34
2023-03-17T02:50:28.785Z,101571.44
2023-03-17T02:52:56.044Z,101572.34
2023-03-17T02:55:22.535Z,101568.84
2023-03-17T02:57:48.958Z,101562.28
2023-03-17T03:00:15.725Z,101566.28
2023-03-17T03:02:42.486Z,101569.56
2023-03-17T03:05:09.636Z,101567.00
2023-03-17T03:07:36.576Z,101569.75
2023-03-17T03:10:04.060Z,101563.91
2023-03-17T03:12:30.524Z,101569.41
2023-03-17T03:14:56.957Z,101564.88
2023-03-17T03:17:23.707Z,101570.28
2023-03-17T03:19:50.465Z,101567.41
2023-03-17T03:22:16.934Z,101567.41
2023-03-17T03:24:43.945Z,101564.09
2023-03-17T03:27:10.896Z,101557.22
2023-03-17T03:29:38.229Z,101565.97
2023-03-17T03:32:04.931Z,101564.13
2023-03-17T03:34:31.855Z,101572.53
2023-03-17T03:36:58.359Z,101577.97
2023-03-17T03:39:24.885Z,101572.53
2023-03-17T03:41:51.317Z,101571.63
2023-03-17T03:44:17.777Z,101578.00
2023-03-17T03:46:44.223Z,101572.00
2023-03-17T03:49:10.753Z,101572.75
2023-03-17T03:51:37.191Z,101580.88
2023-03-17T03:54:03.790Z,101580.50
2023-03-17T03:56:30.264Z,101585.91
2023-03-17T03:58:57.145Z,101592.19
2023-03-17T04:01:24.556Z,101590.81
2023-03-17T04:03:51.251Z,101584.91
2023-03-17T04:06:17.811Z,101591.63
2023-03-17T04:08:44.455Z,101593.31
2023-03-17T04:11:10.896Z,101595.53
2023-03-17T04:13:38.352Z,101595.38
2023-03-17T04:16:05.064Z,101604.19
2023-03-17T04:18:31.639Z,101593.94
2023-03-17T04:20:58.085Z,101594.28
2023-03-17T04:23:24.512Z,101601.50
2023-03-17T04:25:52.955Z,101593.25
2023-03-17T04:28:20.495Z,101603.56
2023-03-17T04:30:47.048Z,101597.84
2023-03-17T04:33:13.765Z,101596.66
2023-03-17T04:35:40.687Z,101604.50
2023-03-17T04:38:07.207Z,101597.56
2023-03-17T04:40:33.689Z,101599.78
2023-03-17T04:43:01.882Z,101596.41
2023-03-17T04:45:29.895Z,101596.47
2023-03-17T04:47:56.385Z,101594.88
2023-03-17T04:50:22.880Z,101591.25
2023-03-17T04:52:49.349Z,101590.13
2023-03-17T04:55:16.534Z,101596.41
2023-03-17T04:57:43.836Z,101591.47
2023-03-17T05:00:12.712Z,101587.81
2023-03-17T05:02:39.307Z,101586.94
2023-03-17T05:05:06.056Z,101593.75
2023-03-17T05:07:34.112Z,101589.03
2023-03-17T05:10:00.925Z,101597.00
2023-03-17T05:12:28.171Z,101587.66
2023-03-17T05:14:56.232Z,101583.28
2023-03-17T05:17:22.691Z,101587.13
2023-03-17T05:19:49.249Z,101584.16
2023-03-17T05:22:15.820Z,101583.47
2023-03-17T05:24:43.028Z,101587.81
2023-03-17T05:27:09.654Z,101589.22
2023-03-17T05:29:36.189Z,101598.38
2023-03-17T05:32:02.705Z,101600.78
2023-03-17T05:34:32.401Z,101603.72
2023-03-17T05:36:58.842Z,101595.41
2023-03-17T05:39:25.650Z,101593.91
2023-03-17T05:41:55.055Z,101597.34
2023-03-17T05:44:21.668Z,101595.56
2023-03-17T05:46:51.466Z,101590.28
2023-03-17T05:49:18.756Z,101603.09
2023-03-17T05:51:45.168Z,101599.28
2023-03-17T05:54:11.650Z,101598.38
2023-03-17T05:56:38.841Z,101600.72
2023-03-17T05:59:05.453Z,101603.19
2023-03-17T06:01:32.462Z,101601.91
2023-03-17T06:04:00.984Z,101602.16
2023-03-17T06:06:28.663Z,101599.41
2023-03-17T06:08:57.326Z,101605.38
2023-03-17T06:11:23.857Z,101605.38
2023-03-17T06:13:53.426Z,101598.50
2023-03-17T06:16:20.694Z,101605.69
2023-03-17T06:18:47.126Z,101600.88
2023-03-17T06:21:14.594Z,101609.19
2023-03-17T06:23:44.312Z,101607.28
2023-03-17T06:26:10.981Z,101602.78
2023-03-17T06:28:40.167Z,101603.03
2023-03-17T06:31:07.430Z,101610.59
2023-03-17T06:33:35.514Z,101609.78
2023-03-17T06:36:03.449Z,101610.19
2023-03-17T06:38:30.513Z,101616.03
2023-03-17T06:40:58.146Z,101619.19
2023-03-17T06:43:26.239Z,101615.50
2023-03-17T06:45:52.757Z,101623.41
2023-03-17T06:48:23.724Z,101616.84
2023-03-17T06:50:50.343Z,101627.03
2023-03-17T06:53:17.417Z,101617.09
2023-03-17T06:55:50.584Z,101618.72
2023-03-17T06:58:17.058Z,101616.34
2023-03-17T07:00:48.309Z,101613.94
2023-03-17T07:03:15.872Z,101617.09
2023-03-17T07:05:43.088Z,101619.59
2023-03-17T07:08:12.039Z,101619.97
2023-03-17T07:10:41.555Z,101621.66
2023-03-17T07:13:15.950Z,101620.13
2023-03-17T07:15:47.849Z,101614.66
2023-03-17T07:18:14.847Z,101616.50
2023-03-17T07:20:43.333Z,101613.00
2023-03-17T07:23:23.150Z,101618.84
2023-03-17T07:25:50.726Z,101608.56
2023-03-17T07:28:23.642Z,101610.28
2023-03-17T07:30:51.043Z,101615.28
2023-03-17T07:33:21.231Z,101610.56
2023-03-17T07:35:49.600Z,101613.50
2023-03-17T07:38:18.264Z,101611.66
2023-03-17T07:40:47.699Z,101608.25
2023-03-17T07:43:16.191Z,101608.72
2023-03-17T07:45:47.049Z,101612.94
2023-03-17T07:48:19.272Z,101609.69
2023-03-17T07:50:45.918Z,101613.47
2023-03-17T07:53:13.916Z,101611.88
2023-03-17T07:55:41.558Z,101616.00
2023-03-17T07:58:09.252Z,101610.09
2023-03-17T08:00:36.052Z,101614.59
2023-03-17T08:03:10.312Z,101613.50
2023-03-17T08:05:38.164Z,101607.34
2023-03-17T08:08:06.654Z,101604.69
2023-03-17T08:10:36.469Z,101603.41
2023-03-17T08:13:04.148Z,101601.06
2023-03-17T08:15:31.431Z,101605.91
2023-03-17T08:17:58.374Z,101603.06
2023-03-17T08:20:25.351Z,101602.56
2023-03-17T08:22:52.042Z,101597.25
2023-03-17T08:25:18.690Z,101606.53
2023-03-17T08:27:49.015Z,101601.22
2023-03-17T08:30:16.464Z,101600.19
2023-03-17T08:32:43.767Z,101599.78
2023-03-17T08:35:17.343Z,101607.19
2023-03-17T08:37:45.426Z,101609.94
2023-03-17T08:40:17.057Z,101610.91
2023-03-17T08:42:46.374Z,101609.16
2023-03-17T08:45:16.610Z,101611.22
2023-03-17T08:47:43.297Z,101607.56
2023-03-17T08:50:14.851Z,101613.47
2023-03-17T08:52:41.699Z,101609.31
2023-03-17T08:55:09.108Z,101605.22
2023-03-17T08:57:36.328Z,101608.09
2023-03-17T09:00:10.915Z,101610.81
2023-03-17T09:02:38.696Z,101611.91
2023-03-17T09:05:07.364Z,101599.94
2023-03-17T09:07:34.192Z,101605.50
2023-03-17T09:10:02.013Z,101604.78
2023-03-17T09:12:28.945Z,101607.25
2023-03-17T09:14:58.965Z,101604.84
2023-03-17T09:17:25.442Z,101608.50
2023-03-17T09:19:51.996Z,101601.50
2023-03-17T09:22:19.021Z,101595.47
2023-03-17T09:24:46.631Z,101599.44
2023-03-17T09:27:13.718Z,101592.69
2023-03-17T09:29:44.897Z,101596.34
2023-03-17T09:32:11.365Z,101598.91
2023-03-17T09:34:40.570Z,101597.28
2023-03-17T09:37:07.308Z,101601.97
2023-03-17T09:39:34.238Z,101600.78
2023-03-17T09:42:19.156Z,101597.88
2023-03-17T09:45:00.850Z,101603.34
2023-03-17T09:47:45.328Z,101605.63
2023-03-17T09:50:25.883Z,101593.63
2023-03-17T09:52:55.474Z,101596.81
2023-03-17T09:55:31.231Z,101591.19
2023-03-17T09:57:59.035Z,101592.53
2023-03-17T10:00:29.249Z,101589.91
2023-03-17T10:02:58.206Z,101579.28
2023-03-17T10:05:35.109Z,101579.91
2023-03-17T10:08:22.785Z,101580.78
2023-03-17T10:11:39.129Z,101576.44
2023-03-17T10:14:27.472Z,101578.75
2023-03-17T10:17:07.321Z,101575.50
2023-03-17T10:19:53.099Z,101569.56
2023-03-17T10:22:25.394Z,101563.25
2023-03-17T10:24:57.119Z,101560.56
2023-03-17T10:27:24.515Z,101561.41
2023-03-17T10:29:53.465Z,101554.31
2023-03-17T10:32:19.941Z,101555.91
2023-03-17T10:34:48.737Z,101545.19
2023-03-17T10:37:19.499Z,101551.84
2023-03-17T10:39:52.823Z,101548.94
2023-03-17T10:42:25.444Z,101542.88
2023-03-17T10:45:14.619Z,101539.50
2023-03-17T10:47:48.826Z,101543.28
2023-03-17T10:50:15.593Z,101533.72
2023-03-17T10:53:12.086Z,101537.00
2023-03-17T10:56:09.888Z,101533.72
2023-03-17T10:58:52.208Z,101529.69
2023-03-17T11:01:21.944Z,101537.72
2023-03-17T11:03:49.365Z,101529.41
2023-03-17T11:06:20.559Z,101533.59
2023-03-17T11:08:55.958Z,101521.59
2023-03-17T11:11:33.600Z,101522.47
2023-03-17T11:14:05.141Z,101518.28
2023-03-17T11:16:38.044Z,101518.44
2023-03-17T11:19:10.477Z,101516.13
2023-03-17T11:22:07.542Z,101510.47
2023-03-17T11:24:46.059Z,101508.19
2023-03-17T11:27:29.330Z,101505.38
2023-03-17T11:29:55.818Z,101503.38
2023-03-17T11:32:31.681Z,101498.97
2023-03-17T11:35:23.820Z,101500.28
2023-03-17T11:38:26.646Z,101490.09
2023-03-17T11:41:17.801Z,101499.63
2023-03-17T11:44:27.162Z,101487.59
2023-03-17T11:47:07.733Z,101481.03
2023-03-17T11:49:39.113Z,101486.03
2023-03-17T11:52:11.399Z,101468.59
2023-03-17T11:54:41.529Z,101466.81
2023-03-17T11:57:40.328Z,101468.53
2023-03-17T12:00:36.112Z,101463.63
2023-03-17T12:03:05.592Z,101460.81
2023-03-17T12:05:34.656Z,101456.97
2023-03-17T12:08:21.124Z,101448.94
2023-03-17T12:10:54.797Z,101444.03
2023-03-17T12:13:45.719Z,101449.03
2023-03-17T12:16:19.346Z,101434.91
2023-03-17T12:18:49.955Z,101433.25
2023-03-17T12:22:07.217Z,101425.25
2023-03-17T12:24:44.069Z,101418.94
2023-03-17T12:27:17.139Z,101418.84
2023-03-17T12:29:49.887Z,101418.56
2023-03-17T12:32:22.030Z,101414.78
2023-03-17T12:35:02.245Z,101417.28
2023-03-17T12:37:30.300Z,101406.13
2023-03-17T12:40:05.331Z,101404.88
2023-03-17T12:42:42.523Z,101397.88
2023-03-17T12:45:19.961Z,101402.81
2023-03-17T12:48:19.608Z,101397.50
2023-03-17T12:50:55.331Z,101384.19
2023-03-17T12:53:34.421Z,101385.72
2023-03-17T12:56:18.631Z,101392.72
2023-03-17T12:58:48.646Z,101380.13
2023-03-17T13:01:24.334Z,101381.53
2023-03-17T13:04:33.002Z,101370.91
2023-03-17T13:07:09.142Z,101377.25
2023-03-17T13:09:44.033Z,101372.97
2023-03-17T13:12:42.246Z,101368.69
2023-03-17T13:15:30.925Z,101364.44
2023-03-17T13:18:13.700Z,101355.28
2023-03-17T13:20:45.629Z,101351.00
2023-03-17T13:23:16.083Z,101348.41
2023-03-17T13:25:53.729Z,101351.16
2023-03-17T13:28:41.559Z,101350.38
2023-03-17T13:31:33.585Z,101342.63
2023-03-17T13:34:15.926Z,101338.84
2023-03-17T13:37:02.570Z,101344.56
2023-03-17T13:40:13.973Z,101333.97
2023-03-17T13:43:21.327Z,101326.97
2023-03-17T13:45:49.084Z,101323.06
2023-03-17T13:48:30.339Z,101326.19
2023-03-17T13:51:02.174Z,101319.47
2023-03-17T13:53:31.676Z,101320.75
2023-03-17T13:56:36.894Z,101313.28
2023-03-17T13:59:05.112Z,101314.44
2023-03-17T14:01:39.689Z,101314.81
2023-03-17T14:04:22.092Z,101312.84
2023-03-17T14:06:51.621Z,101314.53
2023-03-17T14:09:31.383Z,101319.59
2023-03-17T14:12:00.387Z,101312.09
2023-03-17T14:14:51.064Z,101317.13
2023-03-17T14:17:28.217Z,101314.69
2023-03-17T14:20:06.399Z,101313.25
2023-03-17T14:22:34.298Z,101311.47
2023-03-17T14:25:01.904Z,101310.69
2023-03-17T14:27:34.119Z,101306.13
2023-03-17T14:30:19.238Z,101303.69
2023-03-17T14:32:49.001Z,101298.25
2023-03-17T14:35:16.231Z,101300.84
2023-03-17T14:37:44.475Z,101293.44
2023-03-17T14:40:24.755Z,101291.78
2023-03-17T14:42:51.671Z,101290.78
2023-03-17T14:45:28.540Z,101288.94
2023-03-17T14:47:55.650Z,101282.25
2023-03-17T14:50:31.458Z,101276.00
2023-03-17T14:53:00.227Z,101277.91
2023-03-17T14:55:45.421Z,101281.66
2023-03-17T14:58:30.769Z,101269.28
2023-03-17T15:01:02.895Z,101270.84
2023-03-17T15:03:33.058Z,101261.91
2023-03-17T15:06:22.826Z,101261.66
2023-03-17T15:08:50.970Z,101260.88
2023-03-17T15:11:26.900Z,101262.94
2023-03-17T15:13:57.022Z,101252.47
2023-03-17T15:16:31.728Z,101258.41
2023-03-17T15:19:03.435Z,101248.84
2023-03-17T15:21:33.614Z,101250.13
2023-03-17T15:24:24.825Z,101241.06
2023-03-17T15:27:05.718Z,101242.22
2023-03-17T15:29:32.544Z,101242.22
2023-03-17T15:32:11.751Z,101231.75
2023-03-17T15:34:38.462Z,101235.38
2023-03-17T15:37:13.421Z,101237.59
2023-03-17T15:39:39.953Z,101228.00
2023-03-17T15:42:06.686Z,101226.84
2023-03-17T15:44:33.413Z,101215.75
2023-03-17T15:47:00.133Z,101224.28
2023-03-17T15:49:27.051Z,101218.53
2023-03-17T15:51:53.659Z,101219.34
2023-03-17T15:54:20.109Z,101211.56
2023-03-17T15:56:46.748Z,101210.41
2023-03-17T15:59:13.310Z,101213.16
2023-03-17T16:01:39.939Z,101208.59
2023-03-17T16:04:06.946Z,101214.03
2023-03-17T16:06:35.568Z,101201.38
2023-03-17T16:09:02.143Z,101208.25
2023-03-17T16:11:31.163Z,101208.63
2023-03-17T16:13:59.615Z,101208.13
2023-03-17T16:16:34.931Z,101211.34
2023-03-17T16:19:02.338Z,101207.22
2023-03-17T16:21:29.681Z,101204.88
2023-03-17T16:23:56.524Z,101203.97
2023-03-17T16:26:23.054Z,101209.97
2023-03-17T16:28:49.903Z,101210.63
2023-03-17T16:31:21.256Z,101214.66
2023-03-17T16:33:48.555Z,101218.28
2023-03-17T16:36:17.787Z,101208.94
2023-03-17T16:38:47.689Z,101203.53
2023-03-17T16:41:22.138Z,101207.50
2023-03-17T16:43:57.586Z,101207.50
2023-03-17T16:46:27.098Z,101209.16
2023-03-17T16:48:53.783Z,101206.81
2023-03-17T16:51:20.841Z,101205.50
2023-03-17T16:53:47.719Z,101211.19
2023-03-17T16:56:20.819Z,101204.06
2023-03-17T16:58:48.063Z,101199.16
2023-03-17T17:01:22.190Z,101200.19
2023-03-17T17:03:49.932Z,101208.44
2023-03-17T17:06:18.488Z,101203.91
2023-03-17T17:08:46.113Z,101212.16
2023-03-17T17:11:14.962Z,101203.75
2023-03-17T17:13:43.269Z,101213.88
2023-03-17T17:16:26.012Z,101212.56
2023-03-17T17:18:53.312Z,101222.88
2023-03-17T17:21:20.160Z,101222.88
2023-03-17T17:23:47.034Z,101222.34
2023-03-17T17:26:13.646Z,101222.34
2023-03-17T17:28:40.757Z,101228.00
2023-03-17T17:31:08.490Z,101226.69
2023-03-17T17:33:36.687Z,101227.28
2023-03-17T17:36:12.725Z,101227.16
2023-03-17T17:38:39.806Z,101227.09
2023-03-17T17:41:08.909Z,101228.19
2023-03-17T17:43:35.585Z,101231.41
2023-03-17T17:46:02.193Z,101237.34
2023-03-17T17:48:29.157Z,101226.00
2023-03-17T17:50:56.873Z,101231.03
2023-03-17T17:53:23.660Z,101232.44
2023-03-17T17:55:51.103Z,101234.59
2023-03-17T17:58:23.309Z,101243.16
2023-03-17T18:00:50.906Z,101247.75
2023-03-17T18:03:17.414Z,101249.84
2023-03-17T18:05:44.306Z,101234.69
2023-03-17T18:08:14.363Z,101239.22
2023-03-17T18:10:41.320Z,101232.47
2023-03-17T18:13:07.951Z,101235.09
2023-03-17T18:15:34.497Z,101235.47
2023-03-17T18:18:01.167Z,101234.63
2023-03-17T18:20:27.948Z,101231.03
2023-03-17T18:22:54.417Z,101240.44
2023-03-17T18:25:20.885Z,101237.72
2023-03-17T18:27:48.253Z,101240.75
2023-03-17T18:30:22.276Z,101242.47
2023-03-17T18:32:50.825Z,101240.19
2023-03-17T18:35:20.899Z,101237.31
2023-03-17T18:37:48.357Z,101235.97
2023-03-17T18:40:18.809Z,101238.09
2023-03-17T18:42:45.990Z,101236.00
2023-03-17T18:45:12.608Z,101234.03
2023-03-17T18:47:40.926Z,101235.09
2023-03-17T18:50:09.169Z,101249.19
2023-03-17T18:52:37.839Z,101240.84
2023-03-17T18:55:05.240Z,101242.22
2023-03-17T18:57:31.849Z,101237.84
2023-03-17T18:59:58.311Z,101249.09
2023-03-17T19:02:24.935Z,101244.53
2023-03-17T19:04:51.384Z,101251.19
2023-03-17T19:07:17.971Z,101254.19
2023-03-17T19:09:45.014Z,101249.25
2023-03-17T19:12:12.150Z,101243.63
2023-03-17T19:14:38.866Z,101250.88
2023-03-17T19:17:06.273Z,101249.03
2023-03-17T19:19:34.023Z,101243.31
2023-03-17T19:22:01.346Z,101241.81
2023-03-17T19:24:27.942Z,101240.41
2023-03-17T19:26:54.399Z,101239.38
2023-03-17T19:29:20.971Z,101239.66
2023-03-17T19:31:48.547Z,101242.84
2023-03-17T19:34:15.478Z,101240.56
2023-03-17T19:36:43.577Z,101238.78
2023-03-17T19:39:10.936Z,101241.00
2023-03-17T19:41:37.609Z,101238.00
2023-03-17T19:44:06.692Z,101239.34
2023-03-17T19:46:34.347Z,101239.66
2023-03-17T19:49:01.209Z,101237.66
2023-03-17T19:51:27.652Z,101234.19
2023-03-17T19:53:55.452Z,101234.50
2023-03-17T19:56:23.085Z,101234.91
2023-03-17T19:58:51.136Z,101231.69
2023-03-17T20:01:17.931Z,101237.47
2023-03-17T20:03:44.399Z,101239.13
2023-03-17T20:06:13.057Z,101243.97
2023-03-17T20:08:43.361Z,101241.38
2023-03-17T20:11:11.510Z,101238.47
2023-03-17T20:13:38.401Z,101236.47
2023-03-17T20:16:06.783Z,101249.97
2023-03-17T20:18:34.017Z,101251.72
2023-03-17T20:21:01.564Z,101239.81
2023-03-17T20:23:28.045Z,101237.81
2023-03-17T20:25:54.454Z,101230.94
2023-03-17T20:28:21.597Z,101239.00
2023-03-17T20:30:49.453Z,101250.16
2023-03-17T20:33:17.116Z,101242.94
2023-03-17T20:35:46.824Z,101240.19
2023-03-17T20:38:14.684Z,101244.50
2023-03-17T20:40:41.954Z,101236.53
2023-03-17T20:43:09.364Z,101240.94
2023-03-17T20:45:37.015Z,101241.78
2023-03-17T20:48:04.976Z,101239.69
2023-03-17T20:50:32.740Z,101248.84
2023-03-17T20:52:59.855Z,101249.59
2023-03-17T20:55:27.741Z,101237.78
2023-03-17T20:57:54.267Z,101235.94
2023-03-17T21:00:21.951Z,101235.94
2023-03-17T21:02:50.347Z,101239.25
2023-03-17T21:05:22.990Z,101239.56
2023-03-17T21:07:50.078Z,101236.59
2023-03-17T21:10:17.379Z,101240.47
2023-03-17T21:12:44.131Z,101233.78
2023-03-17T21:15:12.980Z,101238.78
2023-03-17T21:17:40.071Z,101233.31
2023-03-17T21:20:09.551Z,101232.81
2023-03-17T21:22:36.854Z,101236.13
2023-03-17T21:25:05.086Z,101237.81
2023-03-17T21:27:31.630Z,101232.84
2023-03-17T21:29:58.061Z,101231.81
2023-03-17T21:32:24.691Z,101229.28
2023-03-17T21:34:51.386Z,101232.03
2023-03-17T21:37:18.515Z,101225.59
2023-03-17T21:39:45.819Z,101216.72
2023-03-17T21:42:12.402Z,101223.16
2023-03-17T21:44:39.767Z,101228.28
2023-03-17T21:47:06.306Z,101224.44
2023-03-17T21:49:32.798Z,101221.94
2023-03-17T21:51:59.332Z,101223.78
2023-03-17T21:54:25.786Z,101223.69
2023-03-17T21:56:52.772Z,101227.78
2023-03-17T21:59:20.971Z,101228.03
2023-03-17T22:01:51.797Z,101231.91
2023-03-17T22:04:18.600Z,101229.78
2023-03-17T22:06:45.474Z,101225.88
2023-03-17T22:09:12.968Z,101222.47
2023-03-17T22:11:39.504Z,101217.75
2023-03-17T22:14:06.485Z,101215.75
2023-03-17T22:16:33.020Z,101211.59
2023-03-17T22:18:59.876Z,101213.03
2023-03-17T22:21:26.445Z,101220.47
2023-03-17T22:23:53.013Z,101220.50
2023-03-17T22:26:21.378Z,101207.97
2023-03-17T22:28:49.441Z,101215.53
2023-03-17T22:31:25.079Z,101209.63
2023-03-17T22:33:55.268Z,101217.63
2023-03-17T22:36:23.306Z,101215.88
2023-03-17T22:38:50.201Z,101211.13
2023-03-17T22:41:21.625Z,101212.63
2023-03-17T22:43:48.168Z,101205.28
2023-03-17T22:46:15.823Z,101216.44
2023-03-17T22:48:42.397Z,101215.25
2023-03-17T22:51:12.238Z,101215.91
2023-03-17T22:53:40.336Z,101211.13
2023-03-17T22:56:07.953Z,101213.03
2023-03-17T22:58:34.935Z,101208.03
2023-03-17T23:01:02.557Z,101210.22
2023-03-17T23:03:29.662Z,101215.50
2023-03-17T23:05:58.735Z,101211.72
2023-03-17T23:08:27.753Z,101218.00
2023-03-17T23:10:54.823Z,101215.19
2023-03-17T23:13:22.309Z,101214.53
2023-03-17T23:15:49.140Z,101218.81
2023-03-17T23:18:16.087Z,101219.72
2023-03-17T23:20:43.253Z,101218.00
2023-03-17T23:23:11.523Z,101215.41
2023-03-17T23:25:38.610Z,101214.28
2023-03-17T23:28:06.844Z,101217.63
2023-03-17T23:30:34.597Z,101219.56
2023-03-17T23:33:01.845Z,101225.97
2023-03-17T23:35:31.258Z,101212.94
2023-03-17T23:37:57.742Z,101214.25
2023-03-17T23:40:24.226Z,101222.34
2023-03-17T23:42:52.104Z,101224.50
2023-03-17T23:45:19.211Z,101214.31
2023-03-17T23:47:47.101Z,101215.41
2023-03-17T23:50:14.547Z,101215.63
2023-03-17T23:52:42.465Z,101210.34
2023-03-17T23:55:11.756Z,101213.81
2023-03-17T23:57:38.796Z,101217.25
